sensor_id;sensor_type;location;lat;lon;timestamp;temperature;humidity
79750;SHT31;69233;51.968;5.658;2023-06-26T00:00:22;27.0;53.5
79750;SHT31;69233;51.968;5.658;2023-06-26T00:02:51;26.9;53.4
79750;SHT31;69233;51.968;5.658;2023-06-26T00:05:21;26.9;53.3
79750;SHT31;69233;51.968;5.658;2023-06-26T00:07:51;26.9;53.5
79750;SHT31;69233;51.968;5.658;2023-06-26T00:10:20;26.9;53.0
79750;SHT31;69233;51.968;5.658;2023-06-26T00:12:50;26.8;53.4
79750;SHT31;69233;51.968;5.658;2023-06-26T00:15:20;26.8;53.3
79750;SHT31;69233;51.968;5.658;2023-06-26T00:17:51;26.8;53.5
79750;SHT31;69233;51.968;5.658;2023-06-26T00:20:20;26.8;53.5
79750;SHT31;69233;51.968;5.658;2023-06-26T00:22:52;26.8;53.4
79750;SHT31;69233;51.968;5.658;2023-06-26T00:25:22;26.7;53.6
79750;SHT31;69233;51.968;5.658;2023-06-26T00:27:52;26.7;53.6
79750;SHT31;69233;51.968;5.658;2023-06-26T00:30:21;26.7;53.2
79750;SHT31;69233;51.968;5.658;2023-06-26T00:32:51;26.7;53.5
79750;SHT31;69233;51.968;5.658;2023-06-26T00:35:22;26.6;53.8
79750;SHT31;69233;51.968;5.658;2023-06-26T00:37:52;26.6;53.9
79750;SHT31;69233;51.968;5.658;2023-06-26T00:40:21;26.6;53.9
79750;SHT31;69233;51.968;5.658;2023-06-26T00:42:51;26.5;54.0
79750;SHT31;69233;51.968;5.658;2023-06-26T00:45:21;26.5;53.8
79750;SHT31;69233;51.968;5.658;2023-06-26T00:47:51;26.5;54.0
79750;SHT31;69233;51.968;5.658;2023-06-26T00:50:21;26.5;54.3
79750;SHT31;69233;51.968;5.658;2023-06-26T00:52:52;26.5;54.3
79750;SHT31;69233;51.968;5.658;2023-06-26T00:55:27;26.4;54.1
79750;SHT31;69233;51.968;5.658;2023-06-26T00:57:58;26.4;54.3
79750;SHT31;69233;51.968;5.658;2023-06-26T01:00:28;26.4;54.3
79750;SHT31;69233;51.968;5.658;2023-06-26T01:02:58;26.4;54.3
79750;SHT31;69233;51.968;5.658;2023-06-26T01:05:28;26.4;54.5
79750;SHT31;69233;51.968;5.658;2023-06-26T01:07:59;26.4;54.3
79750;SHT31;69233;51.968;5.658;2023-06-26T01:10:29;26.3;54.4
79750;SHT31;69233;51.968;5.658;2023-06-26T01:12:59;26.3;54.5
79750;SHT31;69233;51.968;5.658;2023-06-26T01:15:28;26.3;54.5
79750;SHT31;69233;51.968;5.658;2023-06-26T01:17:58;26.3;54.8
79750;SHT31;69233;51.968;5.658;2023-06-26T01:20:32;26.2;54.7
79750;SHT31;69233;51.968;5.658;2023-06-26T01:23:13;26.2;54.7
79750;SHT31;69233;51.968;5.658;2023-06-26T01:25:55;26.2;54.9
79750;SHT31;69233;51.968;5.658;2023-06-26T01:28:27;26.2;54.7
79750;SHT31;69233;51.968;5.658;2023-06-26T01:30:58;26.2;54.7
79750;SHT31;69233;51.968;5.658;2023-06-26T01:33:31;26.1;54.8
79750;SHT31;69233;51.968;5.658;2023-06-26T01:36:00;26.1;54.1
79750;SHT31;69233;51.968;5.658;2023-06-26T01:38:30;26.1;53.9
79750;SHT31;69233;51.968;5.658;2023-06-26T01:41:00;26.0;53.3
79750;SHT31;69233;51.968;5.658;2023-06-26T01:43:40;26.0;53.3
79750;SHT31;69233;51.968;5.658;2023-06-26T01:46:18;26.0;53.2
79750;SHT31;69233;51.968;5.658;2023-06-26T01:48:58;25.9;53.6
79750;SHT31;69233;51.968;5.658;2023-06-26T01:51:32;25.9;53.0
79750;SHT31;69233;51.968;5.658;2023-06-26T01:54:13;25.9;52.6
79750;SHT31;69233;51.968;5.658;2023-06-26T01:56:45;25.9;51.7
79750;SHT31;69233;51.968;5.658;2023-06-26T01:59:18;25.9;52.2
79750;SHT31;69233;51.968;5.658;2023-06-26T02:01:48;25.8;52.5
79750;SHT31;69233;51.968;5.658;2023-06-26T02:04:20;25.8;52.0
79750;SHT31;69233;51.968;5.658;2023-06-26T02:06:49;25.8;51.7
79750;SHT31;69233;51.968;5.658;2023-06-26T02:09:19;25.7;51.9
79750;SHT31;69233;51.968;5.658;2023-06-26T02:11:48;25.7;52.0
79750;SHT31;69233;51.968;5.658;2023-06-26T02:14:17;25.7;52.2
79750;SHT31;69233;51.968;5.658;2023-06-26T02:16:47;25.6;52.5
79750;SHT31;69233;51.968;5.658;2023-06-26T02:19:16;25.6;52.3
79750;SHT31;69233;51.968;5.658;2023-06-26T02:21:49;25.6;52.8
79750;SHT31;69233;51.968;5.658;2023-06-26T02:24:18;25.6;52.9
79750;SHT31;69233;51.968;5.658;2023-06-26T02:26:48;25.5;53.2
79750;SHT31;69233;51.968;5.658;2023-06-26T02:29:20;25.5;53.2
79750;SHT31;69233;51.968;5.658;2023-06-26T02:31:49;25.5;53.5
79750;SHT31;69233;51.968;5.658;2023-06-26T02:34:19;25.4;53.7
79750;SHT31;69233;51.968;5.658;2023-06-26T02:36:48;25.4;53.7
79750;SHT31;69233;51.968;5.658;2023-06-26T02:39:17;25.3;53.8
79750;SHT31;69233;51.968;5.658;2023-06-26T02:41:49;25.3;53.7
79750;SHT31;69233;51.968;5.658;2023-06-26T02:44:19;25.3;54.1
79750;SHT31;69233;51.968;5.658;2023-06-26T02:46:48;25.2;54.0
79750;SHT31;69233;51.968;5.658;2023-06-26T02:49:18;25.2;54.5
79750;SHT31;69233;51.968;5.658;2023-06-26T02:51:47;25.2;54.7
79750;SHT31;69233;51.968;5.658;2023-06-26T02:54:17;25.1;54.8
79750;SHT31;69233;51.968;5.658;2023-06-26T02:56:46;25.1;54.7
79750;SHT31;69233;51.968;5.658;2023-06-26T02:59:16;25.1;54.8
79750;SHT31;69233;51.968;5.658;2023-06-26T03:01:45;25.0;54.7
79750;SHT31;69233;51.968;5.658;2023-06-26T03:04:15;25.0;54.9
79750;SHT31;69233;51.968;5.658;2023-06-26T03:06:45;25.0;55.3
79750;SHT31;69233;51.968;5.658;2023-06-26T03:09:14;24.9;55.4
79750;SHT31;69233;51.968;5.658;2023-06-26T03:11:44;24.9;55.4
79750;SHT31;69233;51.968;5.658;2023-06-26T03:14:13;24.9;55.9
79750;SHT31;69233;51.968;5.658;2023-06-26T03:16:43;24.8;56.0
79750;SHT31;69233;51.968;5.658;2023-06-26T03:19:13;24.8;56.0
79750;SHT31;69233;51.968;5.658;2023-06-26T03:21:42;24.8;56.5
79750;SHT31;69233;51.968;5.658;2023-06-26T03:24:12;24.7;56.5
79750;SHT31;69233;51.968;5.658;2023-06-26T03:26:41;24.7;56.5
79750;SHT31;69233;51.968;5.658;2023-06-26T03:29:11;24.7;56.8
79750;SHT31;69233;51.968;5.658;2023-06-26T03:31:41;24.6;56.7
79750;SHT31;69233;51.968;5.658;2023-06-26T03:34:10;24.6;56.7
79750;SHT31;69233;51.968;5.658;2023-06-26T03:36:40;24.6;57.2
79750;SHT31;69233;51.968;5.658;2023-06-26T03:39:09;24.6;57.2
79750;SHT31;69233;51.968;5.658;2023-06-26T03:41:38;24.5;57.5
79750;SHT31;69233;51.968;5.658;2023-06-26T03:44:08;24.5;57.6
79750;SHT31;69233;51.968;5.658;2023-06-26T03:46:37;24.5;57.8
79750;SHT31;69233;51.968;5.658;2023-06-26T03:49:09;24.5;58.1
79750;SHT31;69233;51.968;5.658;2023-06-26T03:51:38;24.4;58.2
79750;SHT31;69233;51.968;5.658;2023-06-26T03:54:08;24.4;58.0
79750;SHT31;69233;51.968;5.658;2023-06-26T03:56:37;24.4;58.3
79750;SHT31;69233;51.968;5.658;2023-06-26T03:59:07;24.4;58.5
79750;SHT31;69233;51.968;5.658;2023-06-26T04:01:37;24.4;59.0
79750;SHT31;69233;51.968;5.658;2023-06-26T04:04:07;24.4;58.9
79750;SHT31;69233;51.968;5.658;2023-06-26T04:06:36;24.4;58.7
79750;SHT31;69233;51.968;5.658;2023-06-26T04:09:06;24.4;58.9
79750;SHT31;69233;51.968;5.658;2023-06-26T04:11:36;24.3;58.9
79750;SHT31;69233;51.968;5.658;2023-06-26T04:14:05;24.3;59.3
79750;SHT31;69233;51.968;5.658;2023-06-26T04:16:35;24.3;59.4
79750;SHT31;69233;51.968;5.658;2023-06-26T04:19:04;24.3;59.2
79750;SHT31;69233;51.968;5.658;2023-06-26T04:21:36;24.3;59.1
79750;SHT31;69233;51.968;5.658;2023-06-26T04:24:06;24.3;59.2
79750;SHT31;69233;51.968;5.658;2023-06-26T04:26:35;24.3;59.2
79750;SHT31;69233;51.968;5.658;2023-06-26T04:29:06;24.3;58.9
79750;SHT31;69233;51.968;5.658;2023-06-26T04:31:36;24.3;59.1
79750;SHT31;69233;51.968;5.658;2023-06-26T04:34:06;24.3;58.8
79750;SHT31;69233;51.968;5.658;2023-06-26T04:36:35;24.3;59.4
79750;SHT31;69233;51.968;5.658;2023-06-26T04:39:06;24.2;59.5
79750;SHT31;69233;51.968;5.658;2023-06-26T04:41:35;24.2;59.5
79750;SHT31;69233;51.968;5.658;2023-06-26T04:44:05;24.2;59.6
79750;SHT31;69233;51.968;5.658;2023-06-26T04:46:34;24.2;59.5
79750;SHT31;69233;51.968;5.658;2023-06-26T04:49:04;24.2;59.9
79750;SHT31;69233;51.968;5.658;2023-06-26T04:51:33;24.1;59.6
79750;SHT31;69233;51.968;5.658;2023-06-26T04:54:08;24.1;60.3
79750;SHT31;69233;51.968;5.658;2023-06-26T04:56:38;24.1;60.1
79750;SHT31;69233;51.968;5.658;2023-06-26T04:59:08;24.1;60.3
79750;SHT31;69233;51.968;5.658;2023-06-26T05:01:40;24.1;59.5
79750;SHT31;69233;51.968;5.658;2023-06-26T05:04:15;24.1;59.7
79750;SHT31;69233;51.968;5.658;2023-06-26T05:06:47;24.1;59.8
79750;SHT31;69233;51.968;5.658;2023-06-26T05:09:16;24.1;59.6
79750;SHT31;69233;51.968;5.658;2023-06-26T05:11:45;24.1;60.1
79750;SHT31;69233;51.968;5.658;2023-06-26T05:14:15;24.1;59.8
79750;SHT31;69233;51.968;5.658;2023-06-26T05:16:44;24.0;60.1
79750;SHT31;69233;51.968;5.658;2023-06-26T05:19:14;24.0;60.1
79750;SHT31;69233;51.968;5.658;2023-06-26T05:21:44;24.0;60.4
79750;SHT31;69233;51.968;5.658;2023-06-26T05:24:15;24.0;60.7
79750;SHT31;69233;51.968;5.658;2023-06-26T05:26:46;24.0;59.9
79750;SHT31;69233;51.968;5.658;2023-06-26T05:29:16;24.0;58.8
79750;SHT31;69233;51.968;5.658;2023-06-26T05:31:49;24.0;58.9
79750;SHT31;69233;51.968;5.658;2023-06-26T05:34:22;24.0;57.8
79750;SHT31;69233;51.968;5.658;2023-06-26T05:36:58;24.0;57.4
79750;SHT31;69233;51.968;5.658;2023-06-26T05:39:28;24.0;58.2
79750;SHT31;69233;51.968;5.658;2023-06-26T05:41:59;24.0;58.6
79750;SHT31;69233;51.968;5.658;2023-06-26T05:44:28;24.1;58.4
79750;SHT31;69233;51.968;5.658;2023-06-26T05:46:58;24.1;58.2
79750;SHT31;69233;51.968;5.658;2023-06-26T05:49:27;24.1;56.8
79750;SHT31;69233;51.968;5.658;2023-06-26T05:51:57;24.1;57.1
79750;SHT31;69233;51.968;5.658;2023-06-26T05:54:29;24.1;57.6
79750;SHT31;69233;51.968;5.658;2023-06-26T05:56:59;24.1;57.9
79750;SHT31;69233;51.968;5.658;2023-06-26T05:59:31;24.2;57.3
79750;SHT31;69233;51.968;5.658;2023-06-26T06:02:00;24.2;57.6
79750;SHT31;69233;51.968;5.658;2023-06-26T06:04:32;24.2;56.8
79750;SHT31;69233;51.968;5.658;2023-06-26T06:07:02;24.2;57.0
79750;SHT31;69233;51.968;5.658;2023-06-26T06:09:32;24.2;56.8
79750;SHT31;69233;51.968;5.658;2023-06-26T06:12:01;24.3;57.3
79750;SHT31;69233;51.968;5.658;2023-06-26T06:14:32;24.3;57.3
79750;SHT31;69233;51.968;5.658;2023-06-26T06:17:01;24.3;56.7
79750;SHT31;69233;51.968;5.658;2023-06-26T06:19:31;24.4;55.8
79750;SHT31;69233;51.968;5.658;2023-06-26T06:22:00;24.4;55.8
79750;SHT31;69233;51.968;5.658;2023-06-26T06:24:30;24.5;56.5
79750;SHT31;69233;51.968;5.658;2023-06-26T06:26:59;24.5;55.5
79750;SHT31;69233;51.968;5.658;2023-06-26T06:29:28;24.6;55.2
79750;SHT31;69233;51.968;5.658;2023-06-26T06:31:58;24.6;55.4
79750;SHT31;69233;51.968;5.658;2023-06-26T06:34:27;24.7;55.2
79750;SHT31;69233;51.968;5.658;2023-06-26T06:36:57;24.7;54.5
79750;SHT31;69233;51.968;5.658;2023-06-26T06:39:26;24.7;54.7
79750;SHT31;69233;51.968;5.658;2023-06-26T06:41:56;24.8;54.5
79750;SHT31;69233;51.968;5.658;2023-06-26T06:44:25;24.8;55.8
79750;SHT31;69233;51.968;5.658;2023-06-26T06:46:57;24.8;56.1
79750;SHT31;69233;51.968;5.658;2023-06-26T06:49:26;24.9;55.1
79750;SHT31;69233;51.968;5.658;2023-06-26T06:51:56;25.0;54.7
79750;SHT31;69233;51.968;5.658;2023-06-26T06:54:26;25.0;55.6
79750;SHT31;69233;51.968;5.658;2023-06-26T06:56:58;25.1;55.7
79750;SHT31;69233;51.968;5.658;2023-06-26T06:59:27;25.2;54.0
79750;SHT31;69233;51.968;5.658;2023-06-26T07:01:57;25.3;54.1
79750;SHT31;69233;51.968;5.658;2023-06-26T07:04:26;25.4;53.0
79750;SHT31;69233;51.968;5.658;2023-06-26T07:06:56;25.5;53.3
79750;SHT31;69233;51.968;5.658;2023-06-26T07:09:26;25.6;53.7
79750;SHT31;69233;51.968;5.658;2023-06-26T07:11:55;25.6;53.4
79750;SHT31;69233;51.968;5.658;2023-06-26T07:14:25;25.7;52.8
79750;SHT31;69233;51.968;5.658;2023-06-26T07:16:54;25.7;53.0
79750;SHT31;69233;51.968;5.658;2023-06-26T07:19:24;25.8;53.3
79750;SHT31;69233;51.968;5.658;2023-06-26T07:21:55;25.8;53.6
79750;SHT31;69233;51.968;5.658;2023-06-26T07:24:25;25.9;53.3
79750;SHT31;69233;51.968;5.658;2023-06-26T07:26:54;25.9;54.8
79750;SHT31;69233;51.968;5.658;2023-06-26T07:29:24;26.0;53.8
79750;SHT31;69233;51.968;5.658;2023-06-26T07:31:53;26.0;53.5
79750;SHT31;69233;51.968;5.658;2023-06-26T07:34:23;26.1;53.7
79750;SHT31;69233;51.968;5.658;2023-06-26T07:36:53;26.1;53.5
79750;SHT31;69233;51.968;5.658;2023-06-26T07:39:22;26.2;53.2
79750;SHT31;69233;51.968;5.658;2023-06-26T07:41:51;26.3;53.2
79750;SHT31;69233;51.968;5.658;2023-06-26T07:44:21;26.3;52.6
79750;SHT31;69233;51.968;5.658;2023-06-26T07:46:51;26.3;52.4
79750;SHT31;69233;51.968;5.658;2023-06-26T07:49:21;26.4;51.4
79750;SHT31;69233;51.968;5.658;2023-06-26T07:51:50;26.4;50.8
79750;SHT31;69233;51.968;5.658;2023-06-26T07:54:20;26.4;52.4
79750;SHT31;69233;51.968;5.658;2023-06-26T07:56:57;26.4;52.2
79750;SHT31;69233;51.968;5.658;2023-06-26T07:59:28;26.4;52.7
79750;SHT31;69233;51.968;5.658;2023-06-26T08:01:59;26.5;52.2
79750;SHT31;69233;51.968;5.658;2023-06-26T08:04:29;26.6;53.5
79750;SHT31;69233;51.968;5.658;2023-06-26T08:07:01;26.7;51.8
79750;SHT31;69233;51.968;5.658;2023-06-26T08:09:33;26.8;50.3
79750;SHT31;69233;51.968;5.658;2023-06-26T08:12:03;26.9;49.4
79750;SHT31;69233;51.968;5.658;2023-06-26T08:14:33;26.9;50.3
79750;SHT31;69233;51.968;5.658;2023-06-26T08:17:02;27.0;50.7
79750;SHT31;69233;51.968;5.658;2023-06-26T08:19:32;27.0;51.6
79750;SHT31;69233;51.968;5.658;2023-06-26T08:22:01;27.0;50.7
79750;SHT31;69233;51.968;5.658;2023-06-26T08:24:30;27.1;51.1
79750;SHT31;69233;51.968;5.658;2023-06-26T08:27:02;27.1;50.2
79750;SHT31;69233;51.968;5.658;2023-06-26T08:29:33;27.2;49.5
79750;SHT31;69233;51.968;5.658;2023-06-26T08:32:02;27.2;50.1
79750;SHT31;69233;51.968;5.658;2023-06-26T08:34:32;27.2;51.0
79750;SHT31;69233;51.968;5.658;2023-06-26T08:37:01;27.3;49.2
79750;SHT31;69233;51.968;5.658;2023-06-26T08:39:31;27.4;49.9
79750;SHT31;69233;51.968;5.658;2023-06-26T08:42:00;27.5;48.6
79750;SHT31;69233;51.968;5.658;2023-06-26T08:44:30;27.6;47.8
79750;SHT31;69233;51.968;5.658;2023-06-26T08:47:01;27.6;48.0
79750;SHT31;69233;51.968;5.658;2023-06-26T08:49:37;27.7;46.7
79750;SHT31;69233;51.968;5.658;2023-06-26T08:52:15;27.7;46.8
79750;SHT31;69233;51.968;5.658;2023-06-26T08:54:54;27.8;46.2
79750;SHT31;69233;51.968;5.658;2023-06-26T08:57:26;27.9;47.9
79750;SHT31;69233;51.968;5.658;2023-06-26T08:59:57;28.0;47.8
79750;SHT31;69233;51.968;5.658;2023-06-26T09:02:26;28.1;43.9
79750;SHT31;69233;51.968;5.658;2023-06-26T09:04:57;28.1;43.6
79750;SHT31;69233;51.968;5.658;2023-06-26T09:07:26;28.1;44.5
79750;SHT31;69233;51.968;5.658;2023-06-26T09:09:56;28.2;44.8
79750;SHT31;69233;51.968;5.658;2023-06-26T09:12:26;28.2;44.5
79750;SHT31;69233;51.968;5.658;2023-06-26T09:14:56;28.3;46.4
79750;SHT31;69233;51.968;5.658;2023-06-26T09:17:29;28.4;43.7
79750;SHT31;69233;51.968;5.658;2023-06-26T09:19:59;28.5;42.8
79750;SHT31;69233;51.968;5.658;2023-06-26T09:22:28;28.6;45.1
79750;SHT31;69233;51.968;5.658;2023-06-26T09:24:58;28.6;46.5
79750;SHT31;69233;51.968;5.658;2023-06-26T09:27:30;28.7;45.0
79750;SHT31;69233;51.968;5.658;2023-06-26T09:29:59;28.8;45.5
79750;SHT31;69233;51.968;5.658;2023-06-26T09:32:29;28.9;44.2
79750;SHT31;69233;51.968;5.658;2023-06-26T09:34:59;29.0;44.0
79750;SHT31;69233;51.968;5.658;2023-06-26T09:37:31;29.1;41.6
79750;SHT31;69233;51.968;5.658;2023-06-26T09:40:02;29.2;40.9
79750;SHT31;69233;51.968;5.658;2023-06-26T09:42:32;29.2;40.7
79750;SHT31;69233;51.968;5.658;2023-06-26T09:45:02;29.2;42.2
79750;SHT31;69233;51.968;5.658;2023-06-26T09:47:34;29.2;42.5
79750;SHT31;69233;51.968;5.658;2023-06-26T09:50:04;29.3;42.3
79750;SHT31;69233;51.968;5.658;2023-06-26T09:52:37;29.3;42.3
79750;SHT31;69233;51.968;5.658;2023-06-26T09:55:10;29.3;40.1
79750;SHT31;69233;51.968;5.658;2023-06-26T09:57:40;29.3;40.8
79750;SHT31;69233;51.968;5.658;2023-06-26T10:00:13;29.3;42.8
79750;SHT31;69233;51.968;5.658;2023-06-26T10:02:44;29.3;41.7
79750;SHT31;69233;51.968;5.658;2023-06-26T10:05:13;29.4;41.7
79750;SHT31;69233;51.968;5.658;2023-06-26T10:07:44;29.5;41.8
79750;SHT31;69233;51.968;5.658;2023-06-26T10:10:16;29.6;40.2
79750;SHT31;69233;51.968;5.658;2023-06-26T10:12:49;29.7;39.9
79750;SHT31;69233;51.968;5.658;2023-06-26T10:15:22;29.7;40.1
79750;SHT31;69233;51.968;5.658;2023-06-26T10:17:56;29.8;41.7
79750;SHT31;69233;51.968;5.658;2023-06-26T10:20:26;29.8;40.9
79750;SHT31;69233;51.968;5.658;2023-06-26T10:23:00;29.9;38.8
79750;SHT31;69233;51.968;5.658;2023-06-26T10:25:31;30.0;39.5
79750;SHT31;69233;51.968;5.658;2023-06-26T10:28:02;30.0;39.3
79750;SHT31;69233;51.968;5.658;2023-06-26T10:30:35;30.1;39.7
79750;SHT31;69233;51.968;5.658;2023-06-26T10:33:06;30.3;38.6
79750;SHT31;69233;51.968;5.658;2023-06-26T10:35:43;30.4;38.6
79750;SHT31;69233;51.968;5.658;2023-06-26T10:38:14;30.5;36.7
79750;SHT31;69233;51.968;5.658;2023-06-26T10:40:47;30.5;36.4
79750;SHT31;69233;51.968;5.658;2023-06-26T10:43:17;30.5;36.4
79750;SHT31;69233;51.968;5.658;2023-06-26T10:45:49;30.5;37.3
79750;SHT31;69233;51.968;5.658;2023-06-26T10:48:22;30.5;38.3
79750;SHT31;69233;51.968;5.658;2023-06-26T10:50:57;30.6;36.6
79750;SHT31;69233;51.968;5.658;2023-06-26T10:53:26;30.6;37.6
79750;SHT31;69233;51.968;5.658;2023-06-26T10:56:02;30.6;37.9
79750;SHT31;69233;51.968;5.658;2023-06-26T10:58:33;30.6;37.6
79750;SHT31;69233;51.968;5.658;2023-06-26T11:01:24;30.6;38.2
79750;SHT31;69233;51.968;5.658;2023-06-26T11:04:05;30.6;37.1
79750;SHT31;69233;51.968;5.658;2023-06-26T11:06:36;30.6;35.9
79750;SHT31;69233;51.968;5.658;2023-06-26T11:09:14;30.6;36.0
79750;SHT31;69233;51.968;5.658;2023-06-26T11:11:58;30.6;37.0
79750;SHT31;69233;51.968;5.658;2023-06-26T11:14:32;30.6;38.1
79750;SHT31;69233;51.968;5.658;2023-06-26T11:17:05;30.6;37.2
79750;SHT31;69233;51.968;5.658;2023-06-26T11:19:36;30.7;36.9
79750;SHT31;69233;51.968;5.658;2023-06-26T11:22:05;30.8;36.0
79750;SHT31;69233;51.968;5.658;2023-06-26T11:24:36;30.8;35.1
79750;SHT31;69233;51.968;5.658;2023-06-26T11:27:06;30.8;35.4
79750;SHT31;69233;51.968;5.658;2023-06-26T11:29:35;30.8;35.4
79750;SHT31;69233;51.968;5.658;2023-06-26T11:32:06;30.8;35.2
79750;SHT31;69233;51.968;5.658;2023-06-26T11:34:36;30.8;35.9
79750;SHT31;69233;51.968;5.658;2023-06-26T11:37:06;30.8;36.8
79750;SHT31;69233;51.968;5.658;2023-06-26T11:39:35;30.9;37.9
79750;SHT31;69233;51.968;5.658;2023-06-26T11:42:06;31.1;36.7
79750;SHT31;69233;51.968;5.658;2023-06-26T11:44:42;31.2;36.1
79750;SHT31;69233;51.968;5.658;2023-06-26T11:47:16;31.4;36.8
79750;SHT31;69233;51.968;5.658;2023-06-26T11:49:47;31.7;36.4
79750;SHT31;69233;51.968;5.658;2023-06-26T11:52:17;32.0;36.2
79750;SHT31;69233;51.968;5.658;2023-06-26T11:54:47;32.3;34.8
79750;SHT31;69233;51.968;5.658;2023-06-26T11:57:19;32.6;32.9
79750;SHT31;69233;51.968;5.658;2023-06-26T11:59:50;32.8;32.5
79750;SHT31;69233;51.968;5.658;2023-06-26T12:02:23;33.0;31.8
79750;SHT31;69233;51.968;5.658;2023-06-26T12:04:52;33.2;32.1
79750;SHT31;69233;51.968;5.658;2023-06-26T12:07:22;33.3;31.1
79750;SHT31;69233;51.968;5.658;2023-06-26T12:09:52;33.5;31.5
79750;SHT31;69233;51.968;5.658;2023-06-26T12:12:22;33.6;31.2
79750;SHT31;69233;51.968;5.658;2023-06-26T12:14:52;33.7;32.0
79750;SHT31;69233;51.968;5.658;2023-06-26T12:17:24;33.8;30.6
79750;SHT31;69233;51.968;5.658;2023-06-26T12:19:53;33.8;30.1
79750;SHT31;69233;51.968;5.658;2023-06-26T12:22:23;33.9;30.5
79750;SHT31;69233;51.968;5.658;2023-06-26T12:24:56;34.0;30.9
79750;SHT31;69233;51.968;5.658;2023-06-26T12:27:27;34.1;29.1
79750;SHT31;69233;51.968;5.658;2023-06-26T12:29:56;34.1;28.0
79750;SHT31;69233;51.968;5.658;2023-06-26T12:32:26;34.2;29.7
79750;SHT31;69233;51.968;5.658;2023-06-26T12:34:57;34.2;29.3
79750;SHT31;69233;51.968;5.658;2023-06-26T12:37:28;34.3;29.5
79750;SHT31;69233;51.968;5.658;2023-06-26T12:39:58;34.3;31.0
79750;SHT31;69233;51.968;5.658;2023-06-26T12:42:30;34.4;30.4
79750;SHT31;69233;51.968;5.658;2023-06-26T12:45:12;34.6;30.1
79750;SHT31;69233;51.968;5.658;2023-06-26T12:47:42;34.7;27.2
79750;SHT31;69233;51.968;5.658;2023-06-26T12:50:12;34.8;28.0
79750;SHT31;69233;51.968;5.658;2023-06-26T12:52:42;34.9;28.6
79750;SHT31;69233;51.968;5.658;2023-06-26T12:55:12;34.9;27.8
79750;SHT31;69233;51.968;5.658;2023-06-26T12:57:41;35.0;28.1
79750;SHT31;69233;51.968;5.658;2023-06-26T13:00:12;35.1;27.1
79750;SHT31;69233;51.968;5.658;2023-06-26T13:02:42;35.1;27.5
79750;SHT31;69233;51.968;5.658;2023-06-26T13:05:13;35.2;26.6
79750;SHT31;69233;51.968;5.658;2023-06-26T13:07:42;35.3;27.2
79750;SHT31;69233;51.968;5.658;2023-06-26T13:10:12;35.4;27.2
79750;SHT31;69233;51.968;5.658;2023-06-26T13:12:41;35.4;26.3
79750;SHT31;69233;51.968;5.658;2023-06-26T13:15:11;35.5;26.9
79750;SHT31;69233;51.968;5.658;2023-06-26T13:17:41;35.5;26.2
79750;SHT31;69233;51.968;5.658;2023-06-26T13:20:11;35.5;26.6
79750;SHT31;69233;51.968;5.658;2023-06-26T13:22:41;35.5;25.8
79750;SHT31;69233;51.968;5.658;2023-06-26T13:25:12;35.5;26.9
79750;SHT31;69233;51.968;5.658;2023-06-26T13:27:42;35.6;26.1
79750;SHT31;69233;51.968;5.658;2023-06-26T13:30:13;35.6;26.5
79750;SHT31;69233;51.968;5.658;2023-06-26T13:32:43;35.5;26.4
79750;SHT31;69233;51.968;5.658;2023-06-26T13:35:13;35.5;25.1
79750;SHT31;69233;51.968;5.658;2023-06-26T13:37:43;35.4;25.8
79750;SHT31;69233;51.968;5.658;2023-06-26T13:40:14;35.2;25.5
79750;SHT31;69233;51.968;5.658;2023-06-26T13:42:44;35.1;25.7
79750;SHT31;69233;51.968;5.658;2023-06-26T13:45:14;34.9;26.8
79750;SHT31;69233;51.968;5.658;2023-06-26T13:47:43;34.7;26.4
79750;SHT31;69233;51.968;5.658;2023-06-26T13:50:13;34.6;25.9
79750;SHT31;69233;51.968;5.658;2023-06-26T13:52:42;34.4;27.4
79750;SHT31;69233;51.968;5.658;2023-06-26T13:55:12;34.2;27.8
79750;SHT31;69233;51.968;5.658;2023-06-26T13:57:42;34.1;28.6
79750;SHT31;69233;51.968;5.658;2023-06-26T14:00:13;34.0;28.8
79750;SHT31;69233;51.968;5.658;2023-06-26T14:02:48;33.9;29.2
79750;SHT31;69233;51.968;5.658;2023-06-26T14:05:18;33.8;28.1
79750;SHT31;69233;51.968;5.658;2023-06-26T14:07:48;33.7;28.8
79750;SHT31;69233;51.968;5.658;2023-06-26T14:10:20;33.5;29.0
79750;SHT31;69233;51.968;5.658;2023-06-26T14:12:49;33.4;29.2
79750;SHT31;69233;51.968;5.658;2023-06-26T14:15:19;33.2;29.5
79750;SHT31;69233;51.968;5.658;2023-06-26T14:17:49;33.0;28.7
79750;SHT31;69233;51.968;5.658;2023-06-26T14:20:19;32.9;29.3
79750;SHT31;69233;51.968;5.658;2023-06-26T14:22:51;32.7;30.9
79750;SHT31;69233;51.968;5.658;2023-06-26T14:25:23;32.5;30.3
79750;SHT31;69233;51.968;5.658;2023-06-26T14:27:53;32.4;29.8
79750;SHT31;69233;51.968;5.658;2023-06-26T14:30:23;32.2;30.3
79750;SHT31;69233;51.968;5.658;2023-06-26T14:32:53;32.1;30.2
79750;SHT31;69233;51.968;5.658;2023-06-26T14:35:24;32.0;30.8
79750;SHT31;69233;51.968;5.658;2023-06-26T14:37:54;31.8;30.4
79750;SHT31;69233;51.968;5.658;2023-06-26T14:40:23;31.7;30.6
79750;SHT31;69233;51.968;5.658;2023-06-26T14:42:53;31.6;31.5
79750;SHT31;69233;51.968;5.658;2023-06-26T14:45:24;31.4;31.9
79750;SHT31;69233;51.968;5.658;2023-06-26T14:47:55;31.3;31.1
79750;SHT31;69233;51.968;5.658;2023-06-26T14:50:25;31.2;32.1
79750;SHT31;69233;51.968;5.658;2023-06-26T14:52:54;31.1;31.4
79750;SHT31;69233;51.968;5.658;2023-06-26T14:55:24;31.0;32.6
79750;SHT31;69233;51.968;5.658;2023-06-26T14:57:53;30.9;32.1
79750;SHT31;69233;51.968;5.658;2023-06-26T15:00:23;30.8;34.3
79750;SHT31;69233;51.968;5.658;2023-06-26T15:02:54;30.7;33.8
79750;SHT31;69233;51.968;5.658;2023-06-26T15:05:25;30.6;32.6
79750;SHT31;69233;51.968;5.658;2023-06-26T15:07:55;30.6;33.0
79750;SHT31;69233;51.968;5.658;2023-06-26T15:10:24;30.5;34.0
79750;SHT31;69233;51.968;5.658;2023-06-26T15:12:54;30.4;33.2
79750;SHT31;69233;51.968;5.658;2023-06-26T15:15:24;30.4;34.1
79750;SHT31;69233;51.968;5.658;2023-06-26T15:17:53;30.3;34.1
79750;SHT31;69233;51.968;5.658;2023-06-26T15:20:23;30.3;33.6
79750;SHT31;69233;51.968;5.658;2023-06-26T15:22:53;30.2;32.2
79750;SHT31;69233;51.968;5.658;2023-06-26T15:25:23;30.2;32.4
79750;SHT31;69233;51.968;5.658;2023-06-26T15:27:55;30.1;33.1
79750;SHT31;69233;51.968;5.658;2023-06-26T15:30:25;30.1;34.2
79750;SHT31;69233;51.968;5.658;2023-06-26T15:32:54;30.0;33.9
79750;SHT31;69233;51.968;5.658;2023-06-26T15:35:24;30.0;34.1
79750;SHT31;69233;51.968;5.658;2023-06-26T15:37:54;29.9;33.8
79750;SHT31;69233;51.968;5.658;2023-06-26T15:40:23;29.9;33.7
79750;SHT31;69233;51.968;5.658;2023-06-26T15:42:53;29.9;32.4
79750;SHT31;69233;51.968;5.658;2023-06-26T15:45:23;29.8;32.7
79750;SHT31;69233;51.968;5.658;2023-06-26T15:47:53;29.7;34.2
79750;SHT31;69233;51.968;5.658;2023-06-26T15:50:23;29.6;33.2
79750;SHT31;69233;51.968;5.658;2023-06-26T15:52:52;29.6;33.0
79750;SHT31;69233;51.968;5.658;2023-06-26T15:55:22;29.5;34.7
79750;SHT31;69233;51.968;5.658;2023-06-26T15:57:54;29.4;32.3
79750;SHT31;69233;51.968;5.658;2023-06-26T16:00:23;29.4;32.0
79750;SHT31;69233;51.968;5.658;2023-06-26T16:02:53;29.3;33.0
79750;SHT31;69233;51.968;5.658;2023-06-26T16:05:24;29.2;33.0
79750;SHT31;69233;51.968;5.658;2023-06-26T16:07:54;29.1;33.2
79750;SHT31;69233;51.968;5.658;2023-06-26T16:10:24;29.0;33.4
79750;SHT31;69233;51.968;5.658;2023-06-26T16:12:54;29.0;32.5
79750;SHT31;69233;51.968;5.658;2023-06-26T16:15:23;28.9;32.8
79750;SHT31;69233;51.968;5.658;2023-06-26T16:17:53;28.8;33.6
79750;SHT31;69233;51.968;5.658;2023-06-26T16:20:22;28.7;33.4
79750;SHT31;69233;51.968;5.658;2023-06-26T16:22:52;28.6;33.9